createdAt,value
2019-01-18T00:00:42.248Z,5.97
2019-01-18T00:03:12.098Z,6.47
2019-01-18T00:05:41.872Z,10.30
2019-01-18T00:08:11.576Z,7.40
2019-01-18T00:10:41.218Z,5.37
2019-01-18T00:13:10.884Z,4.53
2019-01-18T00:15:40.595Z,7.30
2019-01-18T00:18:10.204Z,5.07
2019-01-18T00:24:13.128Z,10.00
2019-01-18T00:26:42.908Z,4.80
2019-01-18T00:29:12.500Z,8.03
2019-01-18T00:31:42.184Z,11.07
2019-01-18T00:38:20.702Z,7.03
2019-01-18T00:40:50.363Z,4.97
2019-01-18T00:43:20.033Z,3.77
2019-01-18T00:45:49.827Z,6.10
2019-01-18T00:48:19.537Z,7.87
2019-01-18T00:50:49.224Z,2.73
2019-01-18T00:53:18.850Z,4.33
2019-01-18T00:55:48.499Z,2.43
2019-01-18T00:58:18.121Z,7.70
2019-01-18T01:00:47.759Z,11.20
2019-01-18T01:03:17.454Z,6.80
2019-01-18T01:09:19.339Z,10.23
2019-01-18T01:11:49.019Z,2.80
2019-01-18T01:14:19.287Z,5.30
2019-01-18T01:16:49.040Z,9.73
2019-01-18T01:19:18.743Z,6.33
2019-01-18T01:21:48.385Z,5.80
2019-01-18T01:24:17.944Z,4.53
2019-01-18T01:26:47.619Z,8.30
2019-01-18T01:29:17.315Z,10.77
2019-01-18T01:31:47.079Z,3.67
2019-01-18T01:34:16.823Z,3.47
2019-01-18T01:36:46.488Z,4.97
2019-01-18T01:39:16.214Z,4.80
2019-01-18T01:41:45.865Z,3.57
2019-01-18T01:44:15.545Z,5.33
2019-01-18T01:46:45.209Z,10.37
2019-01-18T01:49:14.851Z,9.43
2019-01-18T01:51:44.489Z,6.37
2019-01-18T01:54:14.062Z,3.57
2019-01-18T01:56:43.698Z,4.73
2019-01-18T01:59:13.363Z,5.83
2019-01-18T02:01:42.907Z,7.57
2019-01-18T02:04:12.637Z,2.27
2019-01-18T02:06:42.324Z,2.20
2019-01-18T02:09:12.141Z,4.03
2019-01-18T02:11:41.930Z,2.70
2019-01-18T02:14:11.661Z,2.53
2019-01-18T02:16:41.309Z,2.50
2019-01-18T02:19:10.939Z,4.43
2019-01-18T02:21:40.615Z,3.23
2019-01-18T02:24:10.425Z,7.63
2019-01-18T02:26:40.100Z,2.97
2019-01-18T02:29:09.807Z,5.67
2019-01-18T02:31:39.516Z,2.87
2019-01-18T02:34:09.194Z,4.67
2019-01-18T02:36:39.704Z,2.97
2019-01-18T02:39:09.522Z,5.87
2019-01-18T02:41:39.243Z,7.17
2019-01-18T02:44:08.858Z,4.03
2019-01-18T02:46:38.456Z,2.53
2019-01-18T02:49:08.056Z,7.50
2019-01-18T02:51:37.887Z,9.23
2019-01-18T02:54:07.670Z,6.20
2019-01-18T02:56:37.208Z,5.67
2019-01-18T02:59:06.918Z,5.23
2019-01-18T03:01:36.579Z,7.07
2019-01-18T03:04:06.211Z,1.70
2019-01-18T03:06:35.691Z,2.77
2019-01-18T03:09:08.289Z,3.43
2019-01-18T03:11:38.098Z,3.33
2019-01-18T03:14:07.836Z,9.07
2019-01-18T03:16:37.600Z,3.93
2019-01-18T03:19:07.236Z,4.67
2019-01-18T03:25:21.206Z,6.27
2019-01-18T03:27:50.802Z,5.87
2019-01-18T03:30:21.330Z,4.20
2019-01-18T03:32:51.473Z,7.13
2019-01-18T03:35:22.194Z,5.50
2019-01-18T03:37:52.056Z,3.97
2019-01-18T03:40:21.799Z,5.57
2019-01-18T03:42:52.198Z,5.03
2019-01-18T03:45:21.899Z,3.63
2019-01-18T03:47:51.347Z,5.07
2019-01-18T03:53:53.417Z,8.37
2019-01-18T03:56:22.974Z,5.17
2019-01-18T03:58:52.637Z,9.77
2019-01-18T04:01:22.384Z,11.93
2019-01-18T04:03:52.091Z,15.77
2019-01-18T04:09:54.269Z,6.10
2019-01-18T04:12:23.992Z,6.10
2019-01-18T04:14:53.756Z,8.13
2019-01-18T04:17:23.463Z,6.60
2019-01-18T04:23:58.746Z,6.70
2019-01-18T04:26:28.392Z,6.93
2019-01-18T04:28:58.112Z,4.60
2019-01-18T04:31:27.804Z,8.63
2019-01-18T04:33:57.485Z,4.00
2019-01-18T04:36:27.135Z,9.43
2019-01-18T04:38:56.731Z,7.37
2019-01-18T04:41:26.537Z,9.13
2019-01-18T04:43:56.090Z,9.53
2019-01-18T04:46:25.813Z,8.13
2019-01-18T04:48:55.416Z,4.67
2019-01-18T04:51:25.205Z,10.60
2019-01-18T04:53:54.927Z,10.63
2019-01-18T04:56:24.608Z,3.37
2019-01-18T04:58:54.317Z,11.30
2019-01-18T05:01:34.273Z,10.70
2019-01-18T05:04:04.720Z,9.40
2019-01-18T05:06:34.419Z,9.33
2019-01-18T05:09:06.805Z,9.70
2019-01-18T05:11:36.389Z,9.80
2019-01-18T05:14:06.038Z,7.07
2019-01-18T05:16:36.137Z,7.87
2019-01-18T05:19:05.958Z,14.77
2019-01-18T05:21:35.654Z,15.00
2019-01-18T05:24:05.259Z,14.37
2019-01-18T05:26:34.913Z,11.50
2019-01-18T05:29:04.518Z,16.03
2019-01-18T05:31:34.123Z,27.87
2019-01-18T05:34:03.753Z,5.13
2019-01-18T05:36:33.403Z,10.60
2019-01-18T05:39:03.282Z,13.13
2019-01-18T05:41:32.927Z,14.60
2019-01-18T05:44:02.512Z,7.53
2019-01-18T05:46:32.216Z,17.27
2019-01-18T05:49:01.826Z,10.50
2019-01-18T05:58:36.403Z,5.60
2019-01-18T06:01:08.653Z,11.27
2019-01-18T06:03:38.326Z,9.87
2019-01-18T06:06:08.020Z,10.40
2019-01-18T06:08:38.026Z,5.80
2019-01-18T06:11:07.711Z,5.93
2019-01-18T06:13:37.493Z,17.50
2019-01-18T06:16:07.356Z,8.47
2019-01-18T06:18:37.092Z,6.63
2019-01-18T06:24:39.497Z,8.97
2019-01-18T06:27:09.055Z,5.93
2019-01-18T06:29:38.578Z,7.93
2019-01-18T06:32:08.124Z,6.60
2019-01-18T06:34:37.694Z,8.50
2019-01-18T06:37:07.350Z,12.03
2019-01-18T06:39:36.975Z,11.73
2019-01-18T06:42:06.765Z,16.53
2019-01-18T06:44:36.394Z,7.47
2019-01-18T06:47:05.999Z,7.20
2019-01-18T06:49:35.741Z,10.63
2019-01-18T06:52:05.310Z,6.10
2019-01-18T06:54:35.091Z,5.10
2019-01-18T06:57:04.749Z,7.70
2019-01-18T06:59:35.299Z,8.80
2019-01-18T07:02:05.101Z,9.87
2019-01-18T07:04:40.477Z,5.37
2019-01-18T07:07:06.130Z,13.13
2019-01-18T07:09:35.875Z,7.37
2019-01-18T07:12:05.660Z,10.93
2019-01-18T07:14:35.393Z,11.17
2019-01-18T07:17:06.026Z,6.33
2019-01-18T07:19:35.765Z,14.77
2019-01-18T07:22:05.611Z,5.90
2019-01-18T07:24:35.297Z,10.43
2019-01-18T07:27:04.923Z,7.60
2019-01-18T07:29:34.611Z,9.33
2019-01-18T07:32:04.285Z,7.37
2019-01-18T07:34:34.003Z,8.77
2019-01-18T07:40:36.561Z,17.57
2019-01-18T07:43:06.214Z,9.40
2019-01-18T07:45:35.977Z,4.10
2019-01-18T07:48:06.131Z,6.03
2019-01-18T07:50:35.890Z,8.23
2019-01-18T07:53:05.578Z,10.93
2019-01-18T07:55:35.387Z,11.03
2019-01-18T07:58:04.977Z,10.47
2019-01-18T08:00:34.650Z,5.90
2019-01-18T08:03:04.255Z,7.90
2019-01-18T08:05:34.010Z,11.70
2019-01-18T08:08:03.725Z,5.27
2019-01-18T08:10:33.403Z,9.97
2019-01-18T08:13:03.210Z,7.53
2019-01-18T08:15:33.082Z,8.97
2019-01-18T08:18:02.669Z,5.57
2019-01-18T08:24:35.158Z,9.93
2019-01-18T08:27:04.865Z,7.05
2019-01-18T08:29:34.554Z,7.17
2019-01-18T08:32:04.304Z,10.28
2019-01-18T08:34:33.962Z,6.33
2019-01-18T08:40:41.472Z,10.93
2019-01-18T08:43:13.099Z,8.50
2019-01-18T08:45:48.651Z,5.93
2019-01-18T08:48:18.340Z,3.60
2019-01-18T08:50:48.154Z,17.33
2019-01-18T08:53:17.926Z,7.17
2019-01-18T08:55:47.693Z,15.77
2019-01-18T08:58:17.427Z,10.17
2019-01-18T09:00:47.153Z,7.93
2019-01-18T09:03:16.933Z,9.17
2019-01-18T09:05:46.680Z,8.93
2019-01-18T09:08:16.474Z,8.57
2019-01-18T09:10:46.627Z,5.17
2019-01-18T09:13:16.464Z,11.73
2019-01-18T09:15:46.202Z,11.07
2019-01-18T09:18:15.936Z,12.60
2019-01-18T09:20:45.834Z,7.90
2019-01-18T09:23:15.463Z,18.43
2019-01-18T09:25:45.132Z,18.90
2019-01-18T09:28:14.734Z,6.00
2019-01-18T09:30:44.454Z,12.90
2019-01-18T09:33:14.029Z,5.97
2019-01-18T09:39:40.449Z,4.33
2019-01-18T09:42:10.112Z,8.80
2019-01-18T09:44:39.729Z,10.00
2019-01-18T09:47:09.435Z,4.77
2019-01-18T09:49:38.987Z,5.77
2019-01-18T09:52:08.513Z,6.87
2019-01-18T09:54:38.206Z,11.37
2019-01-18T09:57:07.816Z,5.00
2019-01-18T09:59:40.543Z,8.23
2019-01-18T10:02:10.311Z,4.90
2019-01-18T10:04:39.967Z,5.20
2019-01-18T10:10:42.388Z,6.60
2019-01-18T10:13:11.872Z,4.90
2019-01-18T10:15:43.674Z,4.67
2019-01-18T10:18:13.584Z,5.47
2019-01-18T10:20:43.101Z,4.63
2019-01-18T10:23:12.944Z,4.93
2019-01-18T10:25:42.699Z,5.40
2019-01-18T10:28:12.470Z,5.43
2019-01-18T10:30:42.169Z,4.60
2019-01-18T10:33:11.813Z,5.33
2019-01-18T10:35:41.524Z,5.03
2019-01-18T10:38:11.178Z,10.60
2019-01-18T10:40:41.010Z,7.83
2019-01-18T10:43:10.937Z,5.10
2019-01-18T10:45:40.707Z,3.43
2019-01-18T10:48:10.483Z,4.20
2019-01-18T10:50:40.158Z,4.87
2019-01-18T10:53:09.725Z,5.63
2019-01-18T10:55:39.567Z,8.00
2019-01-18T10:58:09.330Z,6.53
2019-01-18T11:00:39.011Z,3.00
2019-01-18T11:03:09.116Z,5.67
2019-01-18T11:05:39.148Z,7.33
2019-01-18T11:08:08.871Z,8.47
2019-01-18T11:10:38.580Z,6.53
2019-01-18T11:13:08.224Z,6.20
2019-01-18T11:15:37.958Z,6.00
2019-01-18T11:18:08.010Z,7.07
2019-01-18T11:24:52.518Z,8.23
2019-01-18T11:27:22.232Z,10.43
2019-01-18T11:29:51.814Z,5.67
2019-01-18T11:32:21.693Z,6.60
2019-01-18T11:34:51.648Z,7.90
2019-01-18T11:40:53.769Z,6.07
2019-01-18T11:43:23.753Z,11.17
2019-01-18T11:45:53.354Z,9.97
2019-01-18T11:48:22.972Z,5.37
2019-01-18T11:50:52.665Z,5.17
2019-01-18T11:53:25.415Z,6.43
2019-01-18T11:55:55.082Z,6.30
2019-01-18T11:58:24.659Z,6.60
2019-01-18T12:00:54.434Z,4.70
2019-01-18T12:03:24.190Z,8.13
2019-01-18T12:05:54.294Z,4.60
2019-01-18T12:08:23.972Z,6.60
2019-01-18T12:10:53.598Z,7.07
2019-01-18T12:13:23.186Z,4.30
2019-01-18T12:15:52.870Z,8.93
2019-01-18T12:18:22.619Z,4.00
2019-01-18T12:27:17.955Z,9.03
2019-01-18T12:29:47.604Z,10.50
2019-01-18T12:32:17.220Z,16.23
2019-01-18T12:34:46.939Z,5.70
2019-01-18T12:40:58.095Z,8.33
2019-01-18T12:43:27.644Z,8.77
2019-01-18T12:45:57.355Z,7.90
2019-01-18T12:48:27.138Z,4.23
2019-01-18T12:55:05.537Z,5.90
2019-01-18T12:57:35.145Z,7.93
2019-01-18T13:00:07.379Z,5.73
2019-01-18T13:02:36.999Z,6.63
2019-01-18T13:05:09.817Z,9.60
2019-01-18T13:07:39.469Z,6.67
2019-01-18T13:10:12.230Z,3.87
2019-01-18T13:12:40.645Z,8.93
2019-01-18T13:15:16.137Z,6.73
2019-01-18T13:17:45.798Z,5.97
2019-01-18T13:20:15.617Z,7.53
2019-01-18T13:26:17.663Z,6.93
2019-01-18T13:28:47.337Z,4.70
2019-01-18T13:31:17.015Z,6.57
2019-01-18T13:33:46.694Z,5.60
2019-01-18T13:36:16.514Z,7.17
2019-01-18T13:38:46.233Z,5.40
2019-01-18T13:41:15.903Z,7.80
2019-01-18T13:43:45.473Z,6.77
2019-01-18T13:46:15.168Z,6.20
2019-01-18T13:48:44.843Z,5.03
2019-01-18T13:55:13.102Z,4.27
2019-01-18T13:57:42.817Z,6.20
2019-01-18T14:00:12.790Z,7.63
2019-01-18T14:02:48.193Z,6.20
2019-01-18T14:05:13.834Z,8.77
2019-01-18T14:07:43.652Z,7.13
2019-01-18T14:10:16.705Z,9.27
2019-01-18T14:12:46.482Z,13.17
2019-01-18T14:15:19.079Z,9.03
2019-01-18T14:17:48.742Z,9.67
2019-01-18T14:20:20.965Z,4.93
2019-01-18T14:22:52.037Z,6.90
2019-01-18T14:25:21.779Z,8.43
2019-01-18T14:27:51.245Z,6.47
2019-01-18T14:30:23.263Z,6.47
2019-01-18T14:32:55.723Z,5.30
2019-01-18T14:35:24.273Z,5.37
2019-01-18T14:41:30.940Z,6.10
2019-01-18T14:43:57.692Z,7.03
2019-01-18T14:46:27.254Z,8.63
2019-01-18T14:48:56.809Z,9.87
2019-01-18T14:55:20.169Z,14.37
2019-01-18T14:57:49.882Z,8.97
2019-01-18T15:00:26.305Z,5.73
2019-01-18T15:03:02.029Z,5.90
2019-01-18T15:05:27.322Z,15.80
2019-01-18T15:07:57.118Z,5.43
2019-01-18T15:10:26.739Z,8.83
2019-01-18T15:12:59.826Z,10.00
2019-01-18T15:15:29.444Z,10.73
2019-01-18T15:17:59.220Z,9.63
2019-01-18T15:20:30.550Z,10.30
2019-01-18T15:23:00.265Z,6.67
2019-01-18T15:25:29.963Z,7.90
2019-01-18T15:28:00.952Z,8.63
2019-01-18T15:30:31.603Z,6.57
2019-01-18T15:33:01.422Z,10.07
2019-01-18T15:35:33.799Z,8.97
2019-01-18T15:38:03.610Z,9.00
2019-01-18T15:40:35.339Z,6.40
2019-01-18T15:43:05.887Z,8.13
2019-01-18T15:45:35.627Z,6.87
2019-01-18T15:48:13.739Z,12.00
2019-01-18T15:50:43.501Z,9.57
2019-01-18T15:53:13.259Z,8.47
2019-01-18T15:55:43.014Z,9.30
2019-01-18T15:58:12.734Z,7.47
2019-01-18T16:00:45.302Z,6.33
2019-01-18T16:03:16.103Z,8.13
2019-01-18T16:05:46.442Z,9.60
2019-01-18T16:08:16.098Z,9.23
2019-01-18T16:10:45.804Z,7.23
2019-01-18T16:13:15.550Z,13.73
2019-01-18T16:15:50.697Z,8.83
2019-01-18T16:18:20.345Z,9.43
2019-01-18T16:20:50.122Z,12.30
2019-01-18T16:23:19.742Z,9.63
2019-01-18T16:25:49.442Z,8.40
2019-01-18T16:28:19.209Z,10.97
2019-01-18T16:30:48.802Z,11.47
2019-01-18T16:33:23.351Z,11.70
2019-01-18T16:35:52.152Z,14.73
2019-01-18T16:38:21.776Z,16.17
2019-01-18T16:40:51.447Z,11.63
2019-01-18T16:43:24.901Z,10.57
2019-01-18T16:45:54.495Z,12.97
2019-01-18T16:48:24.425Z,12.97
2019-01-18T16:50:54.149Z,14.20
2019-01-18T16:53:25.264Z,18.40
2019-01-18T16:55:54.937Z,13.20
2019-01-18T16:58:24.617Z,13.93
2019-01-18T17:00:55.581Z,10.37
2019-01-18T17:03:30.374Z,15.83
2019-01-18T17:05:56.465Z,16.10
2019-01-18T17:08:28.295Z,13.70
2019-01-18T17:10:58.397Z,12.30
2019-01-18T17:13:31.058Z,9.93
2019-01-18T17:16:00.749Z,11.97
2019-01-18T17:18:30.522Z,15.50
2019-01-18T17:21:00.187Z,13.27
2019-01-18T17:23:33.624Z,14.27
2019-01-18T17:26:03.423Z,14.70
2019-01-18T17:28:33.158Z,15.70
2019-01-18T17:31:02.804Z,13.90
2019-01-18T17:33:36.722Z,19.63
2019-01-18T17:36:24.890Z,20.03
2019-01-18T17:40:02.880Z,17.07
2019-01-18T17:43:09.600Z,14.43
2019-01-18T17:46:29.536Z,16.03
2019-01-18T17:49:35.162Z,12.27
2019-01-18T17:52:41.479Z,13.13
2019-01-18T17:56:06.766Z,15.30
2019-01-18T17:59:01.372Z,14.77
2019-01-18T18:02:14.880Z,17.20
2019-01-18T18:05:23.448Z,18.07
2019-01-18T18:08:30.546Z,12.63
2019-01-18T18:11:38.690Z,18.27
2019-01-18T18:15:07.760Z,13.67
2019-01-18T18:18:16.153Z,12.70
2019-01-18T18:21:01.002Z,18.43
2019-01-18T18:23:58.216Z,11.07
2019-01-18T18:27:03.289Z,8.23
2019-01-18T18:30:14.630Z,20.07
2019-01-18T18:33:27.518Z,16.77
2019-01-18T18:36:30.297Z,17.40
2019-01-18T18:39:15.575Z,13.30
2019-01-18T18:42:10.061Z,13.67
2019-01-18T18:45:10.548Z,14.87
2019-01-18T18:48:10.876Z,21.47
2019-01-18T18:51:00.339Z,17.67
2019-01-18T18:53:55.449Z,19.90
2019-01-18T18:57:26.105Z,14.77
2019-01-18T19:00:18.121Z,16.53
2019-01-18T19:03:13.487Z,14.33
2019-01-18T19:06:19.676Z,9.00
2019-01-18T19:09:29.441Z,20.00
2019-01-18T19:12:41.919Z,21.67
2019-01-18T19:15:55.027Z,21.93
2019-01-18T19:19:04.808Z,23.13
2019-01-18T19:22:10.518Z,25.50
2019-01-18T19:25:33.634Z,20.50
2019-01-18T19:28:50.390Z,22.40
2019-01-18T19:31:49.742Z,16.53
2019-01-18T19:34:49.000Z,19.77
2019-01-18T19:37:54.586Z,23.30
2019-01-18T19:41:08.635Z,14.17
2019-01-18T19:44:13.868Z,18.27
2019-01-18T19:47:18.310Z,16.33
2019-01-18T19:50:02.809Z,24.50
2019-01-18T19:56:56.510Z,19.00
2019-01-18T20:00:23.621Z,16.20
2019-01-18T20:03:44.708Z,20.73
2019-01-18T20:10:33.027Z,22.23
2019-01-18T20:13:27.398Z,18.37
2019-01-18T20:16:25.121Z,19.37
2019-01-18T20:19:43.268Z,18.90
2019-01-18T20:23:05.539Z,15.77
2019-01-18T20:25:56.566Z,14.30
2019-01-18T20:28:52.675Z,27.00
2019-01-18T20:31:39.919Z,17.97
2019-01-18T20:34:34.152Z,25.00
2019-01-18T20:44:57.254Z,18.93
2019-01-18T20:48:11.541Z,16.00
2019-01-18T20:51:13.038Z,35.27
2019-01-18T20:57:52.731Z,21.07
2019-01-18T21:00:47.784Z,30.70
2019-01-18T21:03:48.211Z,16.17
2019-01-18T21:06:57.929Z,37.07
2019-01-18T21:09:45.840Z,31.00
2019-01-18T21:12:55.069Z,35.17
2019-01-18T21:16:15.907Z,23.43
2019-01-18T21:19:00.442Z,34.40
2019-01-18T21:22:03.549Z,35.23
2019-01-18T21:24:59.738Z,22.70
2019-01-18T21:27:58.364Z,35.57
2019-01-18T21:30:51.575Z,42.70
2019-01-18T21:33:55.678Z,24.90
2019-01-18T21:37:14.479Z,42.23
2019-01-18T21:40:14.581Z,24.00
2019-01-18T21:43:23.892Z,33.63
2019-01-18T21:46:39.629Z,34.57
2019-01-18T21:49:29.352Z,38.37
2019-01-18T21:52:37.799Z,33.13
2019-01-18T21:55:51.369Z,20.43
2019-01-18T21:58:45.794Z,41.03
2019-01-18T22:01:33.439Z,41.73
2019-01-18T22:04:40.352Z,40.23
2019-01-18T22:07:54.801Z,34.83
2019-01-18T22:10:37.449Z,28.83
2019-01-18T22:13:57.333Z,48.47
2019-01-18T22:17:13.897Z,50.53
2019-01-18T22:20:24.072Z,49.70
2019-01-18T22:23:21.831Z,34.20
2019-01-18T22:26:32.492Z,31.27
2019-01-18T22:29:35.375Z,32.90
2019-01-18T22:32:35.109Z,49.63
2019-01-18T22:35:30.975Z,29.50
2019-01-18T22:38:24.917Z,42.87
2019-01-18T22:41:39.267Z,44.40
2019-01-18T22:44:41.799Z,28.33
2019-01-18T22:47:36.069Z,40.37
2019-01-18T22:50:49.869Z,42.97
2019-01-18T22:53:44.222Z,50.67
2019-01-18T22:56:55.158Z,28.47
2019-01-18T22:59:43.272Z,34.03
2019-01-18T23:02:53.027Z,35.07
2019-01-18T23:05:53.450Z,37.70
2019-01-18T23:09:18.525Z,37.10
2019-01-18T23:12:15.790Z,47.93
2019-01-18T23:15:35.566Z,33.93
2019-01-18T23:18:17.927Z,18.03
2019-01-18T23:21:34.573Z,37.33
2019-01-18T23:24:35.640Z,39.73
2019-01-18T23:28:01.816Z,46.40
2019-01-18T23:31:15.362Z,46.17
2019-01-18T23:34:20.524Z,25.60
2019-01-18T23:37:26.505Z,32.10
2019-01-18T23:40:28.430Z,32.17
2019-01-18T23:43:38.027Z,42.83
2019-01-18T23:46:45.055Z,28.80
2019-01-18T23:49:30.201Z,52.77
2019-01-18T23:59:49.568Z,35.00
